createdAt,value
2022-12-26T00:00:31.314Z,12.30
2022-12-26T00:02:58.104Z,13.45
2022-12-26T00:05:24.797Z,13.10
2022-12-26T00:07:51.504Z,12.75
2022-12-26T00:10:18.100Z,12.10
2022-12-26T00:12:44.837Z,12.43
2022-12-26T00:15:11.450Z,12.77
2022-12-26T00:17:38.068Z,11.52
2022-12-26T00:20:05.371Z,11.07
2022-12-26T00:22:31.967Z,11.77
2022-12-26T00:24:58.640Z,12.45
2022-12-26T00:27:25.226Z,10.88
2022-12-26T00:29:51.909Z,11.40
2022-12-26T00:32:18.506Z,10.93
2022-12-26T00:34:45.083Z,10.85
2022-12-26T00:37:11.638Z,12.48
2022-12-26T00:39:38.256Z,11.07
2022-12-26T00:42:04.885Z,11.57
2022-12-26T00:44:31.702Z,10.68
2022-12-26T00:46:58.943Z,8.85
2022-12-26T00:49:25.650Z,7.90
2022-12-26T00:51:52.466Z,7.40
2022-12-26T00:54:19.184Z,6.43
2022-12-26T00:56:45.936Z,5.40
2022-12-26T00:59:12.879Z,4.90
2022-12-26T01:01:39.833Z,4.85
2022-12-26T01:04:06.814Z,4.32
2022-12-26T01:06:33.467Z,4.85
2022-12-26T01:09:00.114Z,4.03
2022-12-26T01:11:42.293Z,4.85
2022-12-26T01:14:13.399Z,4.50
2022-12-26T01:16:41.416Z,4.68
2022-12-26T01:19:08.343Z,4.43
2022-12-26T01:21:34.939Z,4.00
2022-12-26T01:24:01.952Z,4.40
2022-12-26T01:26:28.517Z,4.32
2022-12-26T01:28:55.135Z,4.07
2022-12-26T01:31:22.904Z,4.07
2022-12-26T01:33:50.044Z,3.75
2022-12-26T01:36:17.270Z,4.32
2022-12-26T01:38:44.605Z,3.67
2022-12-26T01:41:19.297Z,4.10
2022-12-26T01:43:53.468Z,3.92
2022-12-26T01:46:24.059Z,4.40
2022-12-26T01:48:51.486Z,4.35
2022-12-26T01:51:19.293Z,4.50
2022-12-26T01:53:48.626Z,4.88
2022-12-26T01:56:18.135Z,4.82
2022-12-26T01:58:50.429Z,5.30
2022-12-26T02:01:17.787Z,5.53
2022-12-26T02:04:04.525Z,5.65
2022-12-26T02:06:32.074Z,6.03
2022-12-26T02:08:58.831Z,6.03
2022-12-26T02:11:32.903Z,6.53
2022-12-26T02:14:00.565Z,7.32
2022-12-26T02:16:27.242Z,6.78
2022-12-26T02:18:53.933Z,6.72
2022-12-26T02:21:39.232Z,7.45
2022-12-26T02:24:16.726Z,6.30
2022-12-26T02:27:09.847Z,6.53
2022-12-26T02:29:55.711Z,7.65
2022-12-26T02:32:49.954Z,7.00
2022-12-26T02:35:31.479Z,7.32
2022-12-26T02:40:51.940Z,7.57
2022-12-26T02:43:28.262Z,8.30
2022-12-26T02:46:32.061Z,8.00
2022-12-26T02:49:01.297Z,8.13
2022-12-26T02:52:34.270Z,8.60
2022-12-26T02:55:33.850Z,8.48
2022-12-26T02:58:51.986Z,8.73
2022-12-26T03:01:51.539Z,7.50
2022-12-26T03:04:39.360Z,8.88
2022-12-26T03:07:32.360Z,9.65
2022-12-26T03:10:20.113Z,8.93
2022-12-26T03:13:11.843Z,9.52
2022-12-26T03:16:27.837Z,9.90
2022-12-26T03:19:00.632Z,10.35
2022-12-26T03:21:30.771Z,10.48
2022-12-26T03:23:57.360Z,11.05
2022-12-26T03:26:39.843Z,11.57
2022-12-26T03:32:01.679Z,12.00
2022-12-26T03:35:33.812Z,12.02
2022-12-26T03:38:06.196Z,11.73
2022-12-26T03:41:11.616Z,12.77
2022-12-26T03:44:15.961Z,13.45
2022-12-26T03:47:15.068Z,12.65
2022-12-26T03:50:04.383Z,13.00
2022-12-26T03:53:14.592Z,11.82
2022-12-26T03:56:20.558Z,11.30
2022-12-26T03:59:12.449Z,10.85
2022-12-26T04:01:58.859Z,10.75
2022-12-26T04:04:45.099Z,11.00
2022-12-26T04:07:34.564Z,10.55
2022-12-26T04:10:25.569Z,10.15
2022-12-26T04:13:11.333Z,10.00
2022-12-26T04:16:16.948Z,9.93
2022-12-26T04:19:20.235Z,8.88
2022-12-26T04:22:17.698Z,8.50
2022-12-26T04:25:49.781Z,9.18
2022-12-26T04:28:37.217Z,9.48
2022-12-26T04:31:26.723Z,8.32
2022-12-26T04:34:16.716Z,9.20
2022-12-26T04:37:15.887Z,9.15
2022-12-26T04:40:04.014Z,8.95
2022-12-26T04:42:50.881Z,9.10
2022-12-26T04:45:17.887Z,9.25
2022-12-26T04:48:04.532Z,9.02
2022-12-26T04:50:31.065Z,8.95
2022-12-26T04:53:00.777Z,9.07
2022-12-26T04:55:29.373Z,9.10
2022-12-26T04:57:56.122Z,9.23
2022-12-26T05:00:27.845Z,10.30
2022-12-26T05:03:18.628Z,10.45
2022-12-26T05:06:06.739Z,10.50
2022-12-26T05:09:00.786Z,10.80
2022-12-26T05:11:28.901Z,10.70
2022-12-26T05:13:56.369Z,10.65
2022-12-26T05:16:42.827Z,11.60
2022-12-26T05:19:31.077Z,12.13
2022-12-26T05:22:16.883Z,11.38
2022-12-26T05:25:03.450Z,10.50
2022-12-26T05:27:55.691Z,11.15
2022-12-26T05:30:22.584Z,11.48
2022-12-26T05:33:07.987Z,12.77
2022-12-26T05:35:35.312Z,11.48
2022-12-26T05:38:02.511Z,12.43
2022-12-26T05:40:29.004Z,11.77
2022-12-26T05:42:55.547Z,12.07
2022-12-26T05:45:22.067Z,12.63
2022-12-26T05:47:52.016Z,12.07
2022-12-26T05:50:18.914Z,11.90
2022-12-26T05:52:45.492Z,12.00
2022-12-26T05:55:12.209Z,12.52
2022-12-26T05:57:38.721Z,12.90
2022-12-26T06:00:05.820Z,11.90
2022-12-26T06:02:32.444Z,12.75
2022-12-26T06:04:59.061Z,13.70
2022-12-26T06:07:25.632Z,13.88
2022-12-26T06:09:52.276Z,13.75
2022-12-26T06:12:18.871Z,13.88
2022-12-26T06:14:45.514Z,13.88
2022-12-26T06:17:12.068Z,13.60
2022-12-26T06:19:46.369Z,13.43
2022-12-26T06:22:13.308Z,14.48
2022-12-26T06:24:39.805Z,13.05
2022-12-26T06:27:06.282Z,12.98
2022-12-26T06:29:32.862Z,10.93
2022-12-26T06:31:59.449Z,12.57
2022-12-26T06:34:27.600Z,11.25
2022-12-26T06:36:55.389Z,11.18
2022-12-26T06:39:22.914Z,11.00
2022-12-26T06:41:49.421Z,10.90
2022-12-26T06:44:18.458Z,11.07
2022-12-26T06:46:46.094Z,11.70
2022-12-26T06:49:13.014Z,12.02
2022-12-26T06:51:39.542Z,12.15
2022-12-26T06:54:06.290Z,12.05
2022-12-26T06:56:34.184Z,11.35
2022-12-26T06:59:05.103Z,11.93
2022-12-26T07:01:34.116Z,10.80
2022-12-26T07:04:01.175Z,11.32
2022-12-26T07:06:35.242Z,10.23
2022-12-26T07:09:14.396Z,10.77
2022-12-26T07:11:43.987Z,10.52
2022-12-26T07:14:10.964Z,10.13
2022-12-26T07:16:39.066Z,9.27
2022-12-26T07:19:06.448Z,9.57
2022-12-26T07:21:39.719Z,8.82
2022-12-26T07:24:08.837Z,8.48
2022-12-26T07:26:35.370Z,8.10
2022-12-26T07:29:02.012Z,8.13
2022-12-26T07:31:29.223Z,8.63
2022-12-26T07:33:56.330Z,9.18
2022-12-26T07:36:24.887Z,7.90
2022-12-26T07:38:51.487Z,8.02
2022-12-26T07:41:36.480Z,8.63
2022-12-26T07:44:03.119Z,7.82
2022-12-26T07:46:29.934Z,8.25
2022-12-26T07:48:56.507Z,7.60
2022-12-26T07:51:23.133Z,7.47
2022-12-26T07:53:49.891Z,6.88
2022-12-26T07:56:16.617Z,7.30
2022-12-26T07:58:43.223Z,5.88
2022-12-26T08:01:10.282Z,5.70
2022-12-26T08:03:38.056Z,5.85
2022-12-26T08:06:04.781Z,4.95
2022-12-26T08:08:31.304Z,5.07
2022-12-26T08:11:02.057Z,5.07
2022-12-26T08:13:29.658Z,4.43
2022-12-26T08:15:56.783Z,4.05
2022-12-26T08:18:23.847Z,4.15
2022-12-26T08:20:50.410Z,4.25
2022-12-26T08:23:17.397Z,4.07
2022-12-26T08:25:44.166Z,3.40
2022-12-26T08:28:10.702Z,3.60
2022-12-26T08:30:40.043Z,3.72
2022-12-26T08:33:07.280Z,3.47
2022-12-26T08:35:34.988Z,4.00
2022-12-26T08:38:02.165Z,3.28
2022-12-26T08:40:42.573Z,3.45
2022-12-26T08:46:09.668Z,3.17
2022-12-26T08:48:37.862Z,3.35
2022-12-26T08:51:07.075Z,3.10
2022-12-26T08:53:35.662Z,3.42
2022-12-26T08:56:04.151Z,2.70
2022-12-26T08:58:31.031Z,3.25
2022-12-26T09:01:09.966Z,3.25
2022-12-26T09:03:36.742Z,3.15
2022-12-26T09:06:06.275Z,3.10
2022-12-26T09:08:36.385Z,3.15
2022-12-26T09:11:08.166Z,3.35
2022-12-26T09:13:35.297Z,3.30
2022-12-26T09:16:16.363Z,3.15
2022-12-26T09:18:44.255Z,2.90
2022-12-26T09:21:12.646Z,2.80
2022-12-26T09:23:39.961Z,3.20
2022-12-26T09:26:11.496Z,2.72
2022-12-26T09:28:38.379Z,2.65
2022-12-26T09:31:07.650Z,2.92
2022-12-26T09:33:37.529Z,2.80
2022-12-26T09:36:12.489Z,2.63
2022-12-26T09:38:41.280Z,2.78
2022-12-26T09:41:30.809Z,2.53
2022-12-26T09:44:19.047Z,2.60
2022-12-26T09:46:49.063Z,2.53
2022-12-26T09:49:25.874Z,2.80
2022-12-26T09:51:59.136Z,2.15
2022-12-26T09:54:30.192Z,2.22
2022-12-26T09:57:07.330Z,2.50
2022-12-26T09:59:45.134Z,2.20
2022-12-26T10:02:19.020Z,2.28
2022-12-26T10:04:45.688Z,2.55
2022-12-26T10:07:29.246Z,2.10
2022-12-26T10:10:03.773Z,2.22
2022-12-26T10:12:40.347Z,2.00
2022-12-26T10:15:15.236Z,1.92
2022-12-26T10:17:46.580Z,2.00
2022-12-26T10:23:10.095Z,2.28
2022-12-26T10:25:46.522Z,2.30
2022-12-26T10:28:33.074Z,2.00
2022-12-26T10:31:02.806Z,2.13
2022-12-26T10:33:42.725Z,2.40
2022-12-26T10:36:27.272Z,2.20
2022-12-26T10:38:54.510Z,1.98
2022-12-26T10:41:52.490Z,1.70
2022-12-26T10:44:22.506Z,1.98
2022-12-26T10:46:59.610Z,2.17
2022-12-26T10:49:27.029Z,1.73
2022-12-26T10:51:56.146Z,1.80
2022-12-26T10:54:22.832Z,1.90
2022-12-26T10:56:51.369Z,1.60
2022-12-26T10:59:21.581Z,1.38
2022-12-26T11:01:49.095Z,1.48
2022-12-26T11:04:18.873Z,1.60
2022-12-26T11:06:52.570Z,1.38
2022-12-26T11:09:34.711Z,1.30
2022-12-26T11:12:02.310Z,1.20
2022-12-26T11:14:40.034Z,1.27
2022-12-26T11:17:30.362Z,1.27
2022-12-26T11:20:14.995Z,1.98
2022-12-26T11:22:42.608Z,2.00
2022-12-26T11:25:16.823Z,1.30
2022-12-26T11:27:52.322Z,1.38
2022-12-26T11:30:22.739Z,1.17
2022-12-26T11:33:24.087Z,1.00
2022-12-26T11:35:54.618Z,1.70
2022-12-26T11:38:45.040Z,1.10
2022-12-26T11:41:34.289Z,1.25
2022-12-26T11:44:15.951Z,1.38
2022-12-26T11:46:57.965Z,1.38
2022-12-26T11:49:30.004Z,1.27
2022-12-26T11:51:59.772Z,1.13
2022-12-26T11:54:34.865Z,1.48
2022-12-26T11:57:12.422Z,1.50
2022-12-26T11:59:39.340Z,1.58
2022-12-26T12:02:16.629Z,1.40
2022-12-26T12:04:43.813Z,1.30
2022-12-26T12:07:31.585Z,1.83
2022-12-26T12:10:23.775Z,1.30
2022-12-26T12:13:29.188Z,1.30
2022-12-26T12:16:25.179Z,1.27
2022-12-26T12:19:16.662Z,1.15
2022-12-26T12:21:44.789Z,2.00
2022-12-26T12:24:35.314Z,1.65
2022-12-26T12:27:19.939Z,1.42
2022-12-26T12:30:07.967Z,1.38
2022-12-26T12:32:56.879Z,1.67
2022-12-26T12:35:42.457Z,1.58
2022-12-26T12:38:24.731Z,1.45
2022-12-26T12:41:11.095Z,3.67
2022-12-26T12:43:48.964Z,2.30
2022-12-26T12:46:27.433Z,2.28
2022-12-26T12:49:19.750Z,1.40
2022-12-26T12:51:55.213Z,1.25
2022-12-26T12:54:41.443Z,1.13
2022-12-26T12:57:16.058Z,1.13
2022-12-26T13:00:04.581Z,0.93
2022-12-26T13:02:40.164Z,1.25
2022-12-26T13:05:44.744Z,1.02
2022-12-26T13:08:14.742Z,1.50
2022-12-26T13:10:49.794Z,1.50
2022-12-26T13:13:28.493Z,1.52
2022-12-26T13:16:01.439Z,1.50
2022-12-26T13:18:33.605Z,1.20
2022-12-26T13:21:05.283Z,1.45
2022-12-26T13:23:55.001Z,1.63
2022-12-26T13:26:30.926Z,1.52
2022-12-26T13:29:06.669Z,1.40
2022-12-26T13:31:35.011Z,1.67
2022-12-26T13:34:02.706Z,1.40
2022-12-26T13:36:38.294Z,1.42
2022-12-26T13:39:04.705Z,1.50
2022-12-26T13:41:50.149Z,1.67
2022-12-26T13:44:19.782Z,1.50
2022-12-26T13:46:46.217Z,2.05
2022-12-26T13:49:38.947Z,1.40
2022-12-26T13:52:11.312Z,1.77
2022-12-26T13:55:06.844Z,1.40
2022-12-26T13:57:42.456Z,1.98
2022-12-26T14:00:12.423Z,1.52
2022-12-26T14:03:22.364Z,1.80
2022-12-26T14:05:54.663Z,1.60
2022-12-26T14:08:34.599Z,1.88
2022-12-26T14:11:06.793Z,1.75
2022-12-26T14:14:12.574Z,1.75
2022-12-26T14:16:50.504Z,1.83
2022-12-26T14:19:36.468Z,1.75
2022-12-26T14:22:16.059Z,2.58
2022-12-26T14:25:20.324Z,2.30
2022-12-26T14:28:23.040Z,2.10
2022-12-26T14:31:13.741Z,2.85
2022-12-26T14:33:50.087Z,2.20
2022-12-26T14:36:42.678Z,2.17
2022-12-26T14:39:17.937Z,2.08
2022-12-26T14:42:24.964Z,1.98
2022-12-26T14:44:53.637Z,1.92
2022-12-26T14:47:47.996Z,1.95
2022-12-26T14:50:32.703Z,1.98
2022-12-26T14:53:24.279Z,1.90
2022-12-26T14:58:46.179Z,2.15
2022-12-26T15:01:15.571Z,2.28
2022-12-26T15:04:03.857Z,2.42
2022-12-26T15:06:46.265Z,2.63
2022-12-26T15:09:49.750Z,2.30
2022-12-26T15:13:05.216Z,2.33
2022-12-26T15:15:47.518Z,2.17
2022-12-26T15:18:19.998Z,1.92
2022-12-26T15:21:12.645Z,2.17
2022-12-26T15:23:51.050Z,2.40
2022-12-26T15:26:46.021Z,3.33
2022-12-26T15:29:35.417Z,2.90
2022-12-26T15:32:30.985Z,3.38
2022-12-26T15:35:01.820Z,2.88
2022-12-26T15:37:32.432Z,2.65
2022-12-26T15:40:17.833Z,2.55
2022-12-26T15:43:00.881Z,2.20
2022-12-26T15:45:33.245Z,2.28
2022-12-26T15:48:18.385Z,2.50
2022-12-26T15:50:53.714Z,2.25
2022-12-26T15:53:55.563Z,2.55
2022-12-26T15:57:03.048Z,2.72
2022-12-26T16:00:00.659Z,2.60
2022-12-26T16:02:27.429Z,2.10
2022-12-26T16:05:01.268Z,2.10
2022-12-26T16:07:49.561Z,2.30
2022-12-26T16:10:24.823Z,3.33
2022-12-26T16:13:04.066Z,2.33
2022-12-26T16:15:31.878Z,2.75
2022-12-26T16:18:19.997Z,2.45
2022-12-26T16:21:07.174Z,2.38
2022-12-26T16:23:37.266Z,2.53
2022-12-26T16:26:04.112Z,2.80
2022-12-26T16:28:36.820Z,2.40
2022-12-26T16:31:04.025Z,2.08
2022-12-26T16:33:40.869Z,2.55
2022-12-26T16:36:09.276Z,2.05
2022-12-26T16:38:36.031Z,1.95
2022-12-26T16:41:06.413Z,2.10
2022-12-26T16:43:36.601Z,2.33
2022-12-26T16:46:06.112Z,2.30
2022-12-26T16:48:34.038Z,3.45
2022-12-26T16:51:03.250Z,2.50
2022-12-26T16:53:35.834Z,2.28
2022-12-26T16:56:24.014Z,2.45
2022-12-26T16:59:17.308Z,2.08
2022-12-26T17:01:54.649Z,2.13
2022-12-26T17:04:23.697Z,1.70
2022-12-26T17:07:02.643Z,2.47
2022-12-26T17:09:31.581Z,2.28
2022-12-26T17:12:03.656Z,1.95
2022-12-26T17:14:37.079Z,2.22
2022-12-26T17:17:12.142Z,2.15
2022-12-26T17:19:38.618Z,1.90
2022-12-26T17:22:14.007Z,1.90
2022-12-26T17:24:51.145Z,2.30
2022-12-26T17:27:23.580Z,2.50
2022-12-26T17:29:57.050Z,2.13
2022-12-26T17:32:39.643Z,2.55
2022-12-26T17:35:07.793Z,2.20
2022-12-26T17:37:34.731Z,2.30
2022-12-26T17:40:06.018Z,2.13
2022-12-26T17:42:43.485Z,2.10
2022-12-26T17:45:17.089Z,2.70
2022-12-26T17:47:43.678Z,2.30
2022-12-26T17:50:10.294Z,2.28
2022-12-26T17:52:37.314Z,2.38
2022-12-26T17:55:06.346Z,2.88
2022-12-26T17:57:32.880Z,3.65
2022-12-26T17:59:59.417Z,3.05
2022-12-26T18:02:26.076Z,3.63
2022-12-26T18:04:53.706Z,2.75
2022-12-26T18:07:30.941Z,2.50
2022-12-26T18:09:59.786Z,3.03
2022-12-26T18:12:26.260Z,2.70
2022-12-26T18:14:59.283Z,2.92
2022-12-26T18:17:29.048Z,3.47
2022-12-26T18:19:57.762Z,3.30
2022-12-26T18:22:24.494Z,4.07
2022-12-26T18:24:51.007Z,3.33
2022-12-26T18:27:19.764Z,2.60
2022-12-26T18:29:46.457Z,2.88
2022-12-26T18:32:25.038Z,2.53
2022-12-26T18:34:51.995Z,2.78
2022-12-26T18:37:19.608Z,3.40
2022-12-26T18:39:46.100Z,3.15
2022-12-26T18:42:14.126Z,2.25
2022-12-26T18:44:42.405Z,2.90
2022-12-26T18:47:13.524Z,2.60
2022-12-26T18:52:07.114Z,3.00
2022-12-26T18:54:33.712Z,3.10
2022-12-26T18:57:00.230Z,3.28
2022-12-26T18:59:26.689Z,4.13
2022-12-26T19:01:53.262Z,3.60
2022-12-26T19:04:20.030Z,3.17
2022-12-26T19:06:46.728Z,3.33
2022-12-26T19:09:14.209Z,2.90
2022-12-26T19:11:41.601Z,2.70
2022-12-26T19:14:09.039Z,3.00
2022-12-26T19:16:37.937Z,3.33
2022-12-26T19:19:04.773Z,3.05
2022-12-26T19:21:31.243Z,3.30
2022-12-26T19:23:57.747Z,3.15
2022-12-26T19:26:24.282Z,3.05
2022-12-26T19:28:52.256Z,2.70
2022-12-26T19:31:19.972Z,3.13
2022-12-26T19:33:46.907Z,3.10
2022-12-26T19:36:13.590Z,2.38
2022-12-26T19:38:40.271Z,2.70
2022-12-26T19:41:09.441Z,2.78
2022-12-26T19:43:36.086Z,2.47
2022-12-26T19:46:09.851Z,3.15
2022-12-26T19:48:37.315Z,3.25
2022-12-26T19:51:06.514Z,3.15
2022-12-26T19:53:33.918Z,2.85
2022-12-26T19:56:00.425Z,3.10
2022-12-26T19:58:29.900Z,3.20
2022-12-26T20:01:05.507Z,2.83
2022-12-26T20:03:32.196Z,3.30
2022-12-26T20:06:00.837Z,2.50
2022-12-26T20:08:27.337Z,3.03
2022-12-26T20:11:00.523Z,2.75
2022-12-26T20:13:27.320Z,2.83
2022-12-26T20:15:53.854Z,2.58
2022-12-26T20:18:20.402Z,2.42
2022-12-26T20:20:53.195Z,3.10
2022-12-26T20:23:19.862Z,2.53
2022-12-26T20:25:46.413Z,2.58
2022-12-26T20:28:12.982Z,2.78
2022-12-26T20:30:39.916Z,5.07
2022-12-26T20:33:06.722Z,2.47
2022-12-26T20:35:33.236Z,2.63
2022-12-26T20:37:59.832Z,3.22
2022-12-26T20:40:26.372Z,3.05
2022-12-26T20:42:52.946Z,2.72
2022-12-26T20:45:19.557Z,3.05
2022-12-26T20:47:46.063Z,2.47
2022-12-26T20:50:12.640Z,2.85
2022-12-26T20:52:39.171Z,2.28
2022-12-26T20:55:06.140Z,2.55
2022-12-26T20:57:32.603Z,2.90
2022-12-26T20:59:59.162Z,3.08
2022-12-26T21:02:26.609Z,3.03
2022-12-26T21:04:53.311Z,3.10
2022-12-26T21:07:19.804Z,2.38
2022-12-26T21:09:46.899Z,2.60
2022-12-26T21:12:13.520Z,2.92
2022-12-26T21:14:39.988Z,2.78
2022-12-26T21:17:06.750Z,3.10
2022-12-26T21:19:33.316Z,2.63
2022-12-26T21:22:00.017Z,3.05
2022-12-26T21:24:31.202Z,3.25
2022-12-26T21:26:58.197Z,3.22
2022-12-26T21:29:29.781Z,2.72
2022-12-26T21:31:56.520Z,2.55
2022-12-26T21:34:24.948Z,2.67
2022-12-26T21:37:10.176Z,2.92
2022-12-26T21:39:37.172Z,2.63
2022-12-26T21:42:05.339Z,2.88
2022-12-26T21:44:32.277Z,3.05
2022-12-26T21:46:58.851Z,2.67
2022-12-26T21:49:25.429Z,2.85
2022-12-26T21:51:51.986Z,3.40
2022-12-26T21:54:36.979Z,2.70
2022-12-26T21:57:03.826Z,3.10
2022-12-26T21:59:48.994Z,2.70
2022-12-26T22:02:34.444Z,2.38
2022-12-26T22:05:01.352Z,2.78
2022-12-26T22:07:28.463Z,2.50
2022-12-26T22:09:54.961Z,2.72
2022-12-26T22:12:39.874Z,3.53
2022-12-26T22:15:27.296Z,3.35
2022-12-26T22:17:54.179Z,3.13
2022-12-26T22:20:20.672Z,3.72
2022-12-26T22:22:47.452Z,2.50
2022-12-26T22:25:13.998Z,2.90
2022-12-26T22:27:40.485Z,2.53
2022-12-26T22:30:07.602Z,2.83
2022-12-26T22:32:34.281Z,2.45
2022-12-26T22:35:00.924Z,2.28
2022-12-26T22:37:27.650Z,2.55
2022-12-26T22:39:54.197Z,2.45
2022-12-26T22:42:21.187Z,2.88
2022-12-26T22:44:47.814Z,2.58
2022-12-26T22:47:14.374Z,2.85
2022-12-26T22:49:40.984Z,2.78
2022-12-26T22:52:12.503Z,2.58
2022-12-26T22:54:43.597Z,2.15
2022-12-26T22:57:10.272Z,2.85
2022-12-26T23:00:07.177Z,3.25
2022-12-26T23:02:23.887Z,2.75
2022-12-26T23:04:50.907Z,3.40
2022-12-26T23:07:20.862Z,2.85
2022-12-26T23:09:48.023Z,2.90
2022-12-26T23:12:33.585Z,2.92
2022-12-26T23:15:00.540Z,2.97
2022-12-26T23:17:46.740Z,2.70
2022-12-26T23:20:33.204Z,2.72
2022-12-26T23:23:01.675Z,2.75
2022-12-26T23:25:28.466Z,2.78
2022-12-26T23:28:13.525Z,2.58
2022-12-26T23:30:41.173Z,3.10
2022-12-26T23:33:07.918Z,3.35
2022-12-26T23:35:35.185Z,2.78
2022-12-26T23:38:01.948Z,3.47
2022-12-26T23:40:30.763Z,2.75
2022-12-26T23:42:57.998Z,3.47
2022-12-26T23:45:24.790Z,2.97
2022-12-26T23:47:51.522Z,2.72
2022-12-26T23:50:18.633Z,3.17
2022-12-26T23:52:45.636Z,3.78
2022-12-26T23:55:12.648Z,2.92
2022-12-26T23:57:39.443Z,3.67
